• Join FlightAware (Why Join?)
  • Login
  • US Flag 
02:49AM EDT


 

Airport Tracker/Info


-or-


 

Live Flight TrackerFlight Track Log ✈ FIN368 ✈ 24-Jan-2014 ✈ EFOU / OUL - EFHK / HEL

Flight Track Log - Related Links

Times and Time Zones

All times are in EST time to prevent confusion due to time zone crossing. See the FIN368 flight status page for this flight to view local times or setup timezone preferences in your user account.

Time Position Orientation Groundspeed Altitude Reporting Facility
EST Latitude Longitude Course Direction KTS MPH feet Rate Location/Type
11:33AM 64.2638 25.2901 182° South  Level Estimated
11:35AM 64.1237 25.2769 182° South  Level Estimated
11:36AM 64.0085 25.2661 182° South  Level Estimated
11:37AM 63.8932 25.2555 182° South  Level Estimated
11:38AM 63.7780 25.2449 182° South  Level Estimated
11:39AM 63.6628 25.2345 182° South  Level Estimated
11:40AM 63.5476 25.2241 182° South  Level Estimated
11:41AM 63.4324 25.2138 182° South  Level Estimated
11:42AM 63.3172 25.2036 182° South  Level Estimated
11:43AM 63.2020 25.1934 182° South  Level Estimated
11:44AM 63.0868 25.1834 182° South  Level Estimated
11:45AM 62.9716 25.1734 182° South  Level Estimated
11:46AM 62.8564 25.1635 182° South  Level Estimated
11:47AM 62.7411 25.1537 182° South  Level Estimated
11:48AM 62.6259 25.1439 182° South  Level Estimated
11:49AM 62.5107 25.1342 182° South  Level Estimated
11:50AM 62.3955 25.1246 182° South  Level Estimated
11:51AM 62.2803 25.1151 182° South  Level Estimated
11:52AM 62.1651 25.1057 182° South  Level Estimated
11:53AM 62.0499 25.0963 182° South  Level Estimated
11:54AM 61.9346 25.0870 182° South  Level Estimated
11:55AM 61.8194 25.0777 182° South  Level Estimated
11:56AM 61.7042 25.0686 182° South  Level Estimated
11:57AM 61.5890 25.0595 182° South  Level Estimated
11:58AM 61.4738 25.0504 182° South  Level Estimated
11:59AM 61.3585 25.0415 182° South  Level Estimated
12:00PM 61.2433 25.0326 182° South  Level Estimated
12:01PM 61.1281 25.0237 182° South  Level Estimated
12:02PM 61.0129 25.0150 182° South  Level Estimated
12:03PM 60.8977 25.0063 182° South  Level Estimated
12:04PM 60.7824 24.9976 182° South  Level Estimated
12:05PM 60.6672 24.9890 182° South  Level Estimated
12:06PM 60.5520 24.9805 182° South  Level Estimated
12:07PM 60.4368 24.9720 182° South  Level Estimated
12:08PM 60.3215 24.9636 182° South  Level Estimated
12:09PM 60.3172 24.9633 182° South  Level Estimated
12:10PM 60.3172 24.9633 37° Northeast  Level Estimated
12:11PM 60.3172 24.9633 37° Northeast  Level Estimated
12:12PM 60.3172 24.9633 37° Northeast  Level Estimated
12:13PM 60.3172 24.9633 37° Northeast  Level Estimated
12:14PM 60.3172 24.9633 37° Northeast  Level Estimated
12:15PM 60.3172 24.9633 37° Northeast  Level Estimated
12:16PM 60.3172 24.9633 37° Northeast  Level Estimated
12:17PM 60.3172 24.9633 37° Northeast  Level Estimated
12:18PM 60.3172 24.9633 37° Northeast  Level Estimated
12:19PM 60.3172 24.9633 37° Northeast  Level Estimated
12:20PM 60.3172 24.9633 37° Northeast  Level Estimated
12:21PM 60.3172 24.9633 37° Northeast  Level Estimated
12:22PM 60.3172 24.9633 37° Northeast  Level Estimated
12:23PM 60.3172 24.9633 37° Northeast  Level Estimated
12:24PM 60.3172 24.9633 37° Northeast  Level Estimated